sensor_id;sensor_type;location;lat;lon;timestamp;P1;durP1;ratioP1;P2;durP2;ratioP2
52620;SDS011;38515;53.160;6.990;2023-05-10T00:02:07;127.13;;;53.85;;
52620;SDS011;38515;53.160;6.990;2023-05-10T00:04:32;192.38;;;68.03;;
52620;SDS011;38515;53.160;6.990;2023-05-10T00:06:59;236.93;;;70.82;;
52620;SDS011;38515;53.160;6.990;2023-05-10T00:09:24;215.85;;;66.50;;
52620;SDS011;38515;53.160;6.990;2023-05-10T00:11:50;247.30;;;76.03;;
52620;SDS011;38515;53.160;6.990;2023-05-10T00:14:16;257.38;;;76.72;;
52620;SDS011;38515;53.160;6.990;2023-05-10T00:16:42;279.05;;;78.40;;
52620;SDS011;38515;53.160;6.990;2023-05-10T00:19:11;229.52;;;74.95;;
52620;SDS011;38515;53.160;6.990;2023-05-10T00:21:37;208.50;;;73.00;;
52620;SDS011;38515;53.160;6.990;2023-05-10T00:24:03;276.10;;;75.28;;
52620;SDS011;38515;53.160;6.990;2023-05-10T00:26:29;232.15;;;74.63;;
52620;SDS011;38515;53.160;6.990;2023-05-10T00:28:55;194.48;;;71.13;;
52620;SDS011;38515;53.160;6.990;2023-05-10T00:31:22;216.10;;;68.68;;
52620;SDS011;38515;53.160;6.990;2023-05-10T00:33:48;198.25;;;64.97;;
52620;SDS011;38515;53.160;6.990;2023-05-10T00:36:14;35.42;;;21.23;;
52620;SDS011;38515;53.160;6.990;2023-05-10T00:38:40;32.85;;;31.00;;
52620;SDS011;38515;53.160;6.990;2023-05-10T00:41:05;25.45;;;23.25;;
52620;SDS011;38515;53.160;6.990;2023-05-10T00:43:31;40.72;;;37.97;;
52620;SDS011;38515;53.160;6.990;2023-05-10T00:45:57;46.13;;;42.53;;
52620;SDS011;38515;53.160;6.990;2023-05-10T00:48:23;46.50;;;42.00;;
52620;SDS011;38515;53.160;6.990;2023-05-10T00:50:49;48.60;;;38.95;;
52620;SDS011;38515;53.160;6.990;2023-05-10T00:53:15;59.05;;;45.63;;
52620;SDS011;38515;53.160;6.990;2023-05-10T00:55:41;74.53;;;47.28;;
52620;SDS011;38515;53.160;6.990;2023-05-10T00:58:08;96.57;;;55.45;;
52620;SDS011;38515;53.160;6.990;2023-05-10T01:00:34;100.75;;;53.60;;
52620;SDS011;38515;53.160;6.990;2023-05-10T01:03:02;99.85;;;57.35;;
52620;SDS011;38515;53.160;6.990;2023-05-10T01:05:28;98.60;;;60.03;;
52620;SDS011;38515;53.160;6.990;2023-05-10T01:07:54;89.10;;;65.10;;
52620;SDS011;38515;53.160;6.990;2023-05-10T01:10:21;118.40;;;67.55;;
52620;SDS011;38515;53.160;6.990;2023-05-10T01:12:47;118.60;;;70.30;;
52620;SDS011;38515;53.160;6.990;2023-05-10T01:15:13;126.22;;;73.95;;
52620;SDS011;38515;53.160;6.990;2023-05-10T01:17:42;134.68;;;72.57;;
52620;SDS011;38515;53.160;6.990;2023-05-10T01:20:09;131.63;;;70.93;;
52620;SDS011;38515;53.160;6.990;2023-05-10T01:28:22;136.05;;;60.15;;
52620;SDS011;38515;53.160;6.990;2023-05-10T01:31:28;129.80;;;60.20;;
52620;SDS011;38515;53.160;6.990;2023-05-10T01:34:27;141.40;;;62.92;;
52620;SDS011;38515;53.160;6.990;2023-05-10T01:37:04;159.65;;;67.80;;
52620;SDS011;38515;53.160;6.990;2023-05-10T01:39:44;160.27;;;67.10;;
52620;SDS011;38515;53.160;6.990;2023-05-10T01:42:14;152.63;;;61.70;;
52620;SDS011;38515;53.160;6.990;2023-05-10T01:45:00;164.70;;;64.88;;
52620;SDS011;38515;53.160;6.990;2023-05-10T01:47:35;155.68;;;57.88;;
52620;SDS011;38515;53.160;6.990;2023-05-10T01:50:06;149.07;;;56.08;;
52620;SDS011;38515;53.160;6.990;2023-05-10T01:52:44;134.60;;;56.42;;
52620;SDS011;38515;53.160;6.990;2023-05-10T01:55:18;170.52;;;60.58;;
52620;SDS011;38515;53.160;6.990;2023-05-10T01:57:46;151.23;;;57.75;;
52620;SDS011;38515;53.160;6.990;2023-05-10T02:00:15;187.38;;;67.00;;
52620;SDS011;38515;53.160;6.990;2023-05-10T02:02:47;315.42;;;93.95;;
52620;SDS011;38515;53.160;6.990;2023-05-10T02:05:15;399.63;;;109.90;;
52620;SDS011;38515;53.160;6.990;2023-05-10T02:07:42;394.00;;;125.68;;
52620;SDS011;38515;53.160;6.990;2023-05-10T02:10:09;477.88;;;142.85;;
52620;SDS011;38515;53.160;6.990;2023-05-10T02:12:37;515.80;;;159.05;;
52620;SDS011;38515;53.160;6.990;2023-05-10T02:15:08;552.22;;;169.77;;
52620;SDS011;38515;53.160;6.990;2023-05-10T02:17:37;551.22;;;178.23;;
52620;SDS011;38515;53.160;6.990;2023-05-10T02:20:07;539.90;;;171.20;;
52620;SDS011;38515;53.160;6.990;2023-05-10T02:22:35;472.90;;;150.73;;
52620;SDS011;38515;53.160;6.990;2023-05-10T02:25:02;479.15;;;134.70;;
52620;SDS011;38515;53.160;6.990;2023-05-10T02:27:29;401.27;;;123.82;;
52620;SDS011;38515;53.160;6.990;2023-05-10T02:29:56;400.13;;;124.40;;
52620;SDS011;38515;53.160;6.990;2023-05-10T02:32:24;383.73;;;110.88;;
52620;SDS011;38515;53.160;6.990;2023-05-10T02:34:52;284.85;;;92.00;;
52620;SDS011;38515;53.160;6.990;2023-05-10T02:37:19;285.15;;;89.97;;
52620;SDS011;38515;53.160;6.990;2023-05-10T02:39:49;268.67;;;91.63;;
52620;SDS011;38515;53.160;6.990;2023-05-10T02:42:17;276.30;;;82.10;;
52620;SDS011;38515;53.160;6.990;2023-05-10T02:44:48;258.88;;;75.13;;
52620;SDS011;38515;53.160;6.990;2023-05-10T02:47:18;208.50;;;56.63;;
52620;SDS011;38515;53.160;6.990;2023-05-10T02:49:44;190.23;;;57.28;;
52620;SDS011;38515;53.160;6.990;2023-05-10T02:52:11;188.80;;;56.83;;
52620;SDS011;38515;53.160;6.990;2023-05-10T02:54:45;125.15;;;46.47;;
52620;SDS011;38515;53.160;6.990;2023-05-10T02:57:21;112.75;;;45.58;;
52620;SDS011;38515;53.160;6.990;2023-05-10T02:59:51;104.80;;;44.88;;
52620;SDS011;38515;53.160;6.990;2023-05-10T03:02:17;120.88;;;47.00;;
52620;SDS011;38515;53.160;6.990;2023-05-10T03:04:43;110.95;;;47.78;;
52620;SDS011;38515;53.160;6.990;2023-05-10T03:07:09;131.80;;;48.97;;
52620;SDS011;38515;53.160;6.990;2023-05-10T03:09:35;163.98;;;55.67;;
52620;SDS011;38515;53.160;6.990;2023-05-10T03:12:49;141.02;;;53.88;;
52620;SDS011;38515;53.160;6.990;2023-05-10T03:17:55;158.43;;;53.92;;
52620;SDS011;38515;53.160;6.990;2023-05-10T03:20:31;148.68;;;54.85;;
52620;SDS011;38515;53.160;6.990;2023-05-10T03:25:59;150.25;;;49.55;;
52620;SDS011;38515;53.160;6.990;2023-05-10T03:28:26;121.47;;;49.25;;
52620;SDS011;38515;53.160;6.990;2023-05-10T03:30:53;133.50;;;49.78;;
52620;SDS011;38515;53.160;6.990;2023-05-10T03:33:20;131.15;;;50.92;;
52620;SDS011;38515;53.160;6.990;2023-05-10T03:35:46;133.90;;;52.22;;
52620;SDS011;38515;53.160;6.990;2023-05-10T03:38:12;166.82;;;57.40;;
52620;SDS011;38515;53.160;6.990;2023-05-10T03:40:38;145.82;;;57.38;;
52620;SDS011;38515;53.160;6.990;2023-05-10T03:43:04;148.80;;;56.88;;
52620;SDS011;38515;53.160;6.990;2023-05-10T03:45:30;199.15;;;62.00;;
52620;SDS011;38515;53.160;6.990;2023-05-10T03:47:56;178.43;;;56.83;;
52620;SDS011;38515;53.160;6.990;2023-05-10T03:50:23;191.48;;;59.70;;
52620;SDS011;38515;53.160;6.990;2023-05-10T03:52:49;168.13;;;57.55;;
52620;SDS011;38515;53.160;6.990;2023-05-10T03:55:15;179.50;;;60.33;;
52620;SDS011;38515;53.160;6.990;2023-05-10T03:57:41;178.25;;;62.70;;
52620;SDS011;38515;53.160;6.990;2023-05-10T04:00:07;170.10;;;60.88;;
52620;SDS011;38515;53.160;6.990;2023-05-10T04:02:34;182.88;;;63.17;;
52620;SDS011;38515;53.160;6.990;2023-05-10T04:05:00;213.48;;;67.50;;
52620;SDS011;38515;53.160;6.990;2023-05-10T04:07:26;191.05;;;64.40;;
52620;SDS011;38515;53.160;6.990;2023-05-10T04:09:52;204.60;;;64.70;;
52620;SDS011;38515;53.160;6.990;2023-05-10T04:12:18;225.73;;;66.25;;
52620;SDS011;38515;53.160;6.990;2023-05-10T04:14:44;221.52;;;67.63;;
52620;SDS011;38515;53.160;6.990;2023-05-10T04:17:10;186.35;;;62.53;;
52620;SDS011;38515;53.160;6.990;2023-05-10T04:19:36;207.57;;;67.75;;
52620;SDS011;38515;53.160;6.990;2023-05-10T04:22:02;196.93;;;67.18;;
52620;SDS011;38515;53.160;6.990;2023-05-10T04:24:28;178.82;;;64.28;;
52620;SDS011;38515;53.160;6.990;2023-05-10T04:26:54;204.32;;;69.85;;
52620;SDS011;38515;53.160;6.990;2023-05-10T04:29:20;211.73;;;68.07;;
52620;SDS011;38515;53.160;6.990;2023-05-10T04:31:46;199.65;;;69.53;;
52620;SDS011;38515;53.160;6.990;2023-05-10T04:34:12;223.32;;;68.88;;
52620;SDS011;38515;53.160;6.990;2023-05-10T04:36:38;213.80;;;72.40;;
52620;SDS011;38515;53.160;6.990;2023-05-10T04:39:03;190.52;;;66.47;;
52620;SDS011;38515;53.160;6.990;2023-05-10T04:41:29;217.25;;;70.22;;
52620;SDS011;38515;53.160;6.990;2023-05-10T04:43:55;208.27;;;70.22;;
52620;SDS011;38515;53.160;6.990;2023-05-10T04:46:21;196.13;;;65.53;;
52620;SDS011;38515;53.160;6.990;2023-05-10T04:48:47;176.55;;;61.10;;
52620;SDS011;38515;53.160;6.990;2023-05-10T04:51:13;168.50;;;63.00;;
52620;SDS011;38515;53.160;6.990;2023-05-10T04:53:39;143.77;;;54.75;;
52620;SDS011;38515;53.160;6.990;2023-05-10T04:56:05;157.20;;;58.40;;
52620;SDS011;38515;53.160;6.990;2023-05-10T04:58:31;186.52;;;61.50;;
52620;SDS011;38515;53.160;6.990;2023-05-10T05:01:04;182.55;;;61.75;;
52620;SDS011;38515;53.160;6.990;2023-05-10T05:03:31;113.70;;;51.63;;
52620;SDS011;38515;53.160;6.990;2023-05-10T05:05:57;168.30;;;59.75;;
52620;SDS011;38515;53.160;6.990;2023-05-10T05:08:23;170.57;;;57.05;;
52620;SDS011;38515;53.160;6.990;2023-05-10T05:10:49;152.55;;;58.80;;
52620;SDS011;38515;53.160;6.990;2023-05-10T05:13:17;183.95;;;65.80;;
52620;SDS011;38515;53.160;6.990;2023-05-10T05:15:43;178.07;;;64.32;;
52620;SDS011;38515;53.160;6.990;2023-05-10T05:18:09;159.63;;;61.00;;
52620;SDS011;38515;53.160;6.990;2023-05-10T05:20:35;157.93;;;58.72;;
52620;SDS011;38515;53.160;6.990;2023-05-10T05:23:01;167.68;;;60.88;;
52620;SDS011;38515;53.160;6.990;2023-05-10T05:25:27;140.68;;;53.97;;
52620;SDS011;38515;53.160;6.990;2023-05-10T05:27:53;117.18;;;52.13;;
52620;SDS011;38515;53.160;6.990;2023-05-10T05:30:19;129.07;;;49.83;;
52620;SDS011;38515;53.160;6.990;2023-05-10T05:32:45;108.63;;;48.72;;
52620;SDS011;38515;53.160;6.990;2023-05-10T05:35:12;98.70;;;46.33;;
52620;SDS011;38515;53.160;6.990;2023-05-10T05:37:38;123.18;;;52.20;;
52620;SDS011;38515;53.160;6.990;2023-05-10T05:40:04;114.25;;;50.17;;
52620;SDS011;38515;53.160;6.990;2023-05-10T05:42:31;130.57;;;50.15;;
52620;SDS011;38515;53.160;6.990;2023-05-10T05:44:57;135.00;;;47.30;;
52620;SDS011;38515;53.160;6.990;2023-05-10T05:47:23;120.75;;;52.28;;
52620;SDS011;38515;53.160;6.990;2023-05-10T05:49:48;115.10;;;48.28;;
52620;SDS011;38515;53.160;6.990;2023-05-10T05:52:14;111.85;;;47.03;;
52620;SDS011;38515;53.160;6.990;2023-05-10T05:54:40;91.75;;;39.15;;
52620;SDS011;38515;53.160;6.990;2023-05-10T05:57:06;95.25;;;42.33;;
52620;SDS011;38515;53.160;6.990;2023-05-10T05:59:32;89.78;;;38.28;;
52620;SDS011;38515;53.160;6.990;2023-05-10T06:01:58;108.50;;;41.60;;
52620;SDS011;38515;53.160;6.990;2023-05-10T06:04:24;74.63;;;34.17;;
52620;SDS011;38515;53.160;6.990;2023-05-10T06:06:52;65.70;;;29.98;;
52620;SDS011;38515;53.160;6.990;2023-05-10T06:09:18;71.78;;;34.45;;
52620;SDS011;38515;53.160;6.990;2023-05-10T06:11:44;49.22;;;25.45;;
52620;SDS011;38515;53.160;6.990;2023-05-10T06:14:10;30.08;;;19.65;;
52620;SDS011;38515;53.160;6.990;2023-05-10T06:16:36;23.70;;;15.52;;
52620;SDS011;38515;53.160;6.990;2023-05-10T06:19:02;13.23;;;12.00;;
52620;SDS011;38515;53.160;6.990;2023-05-10T06:21:30;13.35;;;12.07;;
52620;SDS011;38515;53.160;6.990;2023-05-10T06:23:56;10.82;;;9.90;;
52620;SDS011;38515;53.160;6.990;2023-05-10T06:26:22;17.33;;;12.70;;
52620;SDS011;38515;53.160;6.990;2023-05-10T06:28:48;16.35;;;13.63;;
52620;SDS011;38515;53.160;6.990;2023-05-10T06:31:14;15.68;;;14.10;;
52620;SDS011;38515;53.160;6.990;2023-05-10T06:33:41;22.42;;;15.98;;
52620;SDS011;38515;53.160;6.990;2023-05-10T06:36:07;15.25;;;13.52;;
52620;SDS011;38515;53.160;6.990;2023-05-10T06:38:32;19.38;;;15.05;;
52620;SDS011;38515;53.160;6.990;2023-05-10T06:40:58;19.85;;;17.70;;
52620;SDS011;38515;53.160;6.990;2023-05-10T06:43:24;22.70;;;16.58;;
52620;SDS011;38515;53.160;6.990;2023-05-10T06:45:51;18.52;;;15.45;;
52620;SDS011;38515;53.160;6.990;2023-05-10T06:48:17;16.65;;;13.93;;
52620;SDS011;38515;53.160;6.990;2023-05-10T06:50:43;15.63;;;12.95;;
52620;SDS011;38515;53.160;6.990;2023-05-10T06:53:09;18.35;;;12.48;;
52620;SDS011;38515;53.160;6.990;2023-05-10T06:55:38;18.83;;;13.50;;
52620;SDS011;38515;53.160;6.990;2023-05-10T06:58:04;16.48;;;12.88;;
52620;SDS011;38515;53.160;6.990;2023-05-10T07:00:31;14.38;;;12.88;;
52620;SDS011;38515;53.160;6.990;2023-05-10T07:02:57;14.65;;;12.20;;
52620;SDS011;38515;53.160;6.990;2023-05-10T07:05:23;13.27;;;11.55;;
52620;SDS011;38515;53.160;6.990;2023-05-10T07:07:49;12.05;;;11.07;;
52620;SDS011;38515;53.160;6.990;2023-05-10T07:10:16;11.35;;;10.38;;
52620;SDS011;38515;53.160;6.990;2023-05-10T07:12:42;12.18;;;11.10;;
52620;SDS011;38515;53.160;6.990;2023-05-10T07:15:08;12.98;;;11.70;;
52620;SDS011;38515;53.160;6.990;2023-05-10T07:17:34;13.63;;;12.07;;
52620;SDS011;38515;53.160;6.990;2023-05-10T07:20:00;15.35;;;13.52;;
52620;SDS011;38515;53.160;6.990;2023-05-10T07:22:26;14.98;;;13.95;;
52620;SDS011;38515;53.160;6.990;2023-05-10T07:24:52;13.98;;;12.73;;
52620;SDS011;38515;53.160;6.990;2023-05-10T07:27:18;9.65;;;8.85;;
52620;SDS011;38515;53.160;6.990;2023-05-10T07:29:44;12.10;;;11.23;;
52620;SDS011;38515;53.160;6.990;2023-05-10T07:32:10;9.18;;;8.40;;
52620;SDS011;38515;53.160;6.990;2023-05-10T07:34:36;8.43;;;7.82;;
52620;SDS011;38515;53.160;6.990;2023-05-10T07:37:02;8.23;;;7.63;;
52620;SDS011;38515;53.160;6.990;2023-05-10T07:39:28;8.85;;;8.18;;
52620;SDS011;38515;53.160;6.990;2023-05-10T07:41:54;10.32;;;9.23;;
52620;SDS011;38515;53.160;6.990;2023-05-10T07:44:20;11.93;;;10.60;;
52620;SDS011;38515;53.160;6.990;2023-05-10T07:46:46;13.23;;;11.85;;
52620;SDS011;38515;53.160;6.990;2023-05-10T07:49:13;12.60;;;11.30;;
52620;SDS011;38515;53.160;6.990;2023-05-10T07:51:39;16.48;;;11.30;;
52620;SDS011;38515;53.160;6.990;2023-05-10T07:54:04;14.85;;;12.48;;
52620;SDS011;38515;53.160;6.990;2023-05-10T07:56:31;15.25;;;13.27;;
52620;SDS011;38515;53.160;6.990;2023-05-10T07:59:01;13.77;;;12.38;;
52620;SDS011;38515;53.160;6.990;2023-05-10T08:01:34;15.13;;;13.63;;
52620;SDS011;38515;53.160;6.990;2023-05-10T08:04:00;15.05;;;13.55;;
52620;SDS011;38515;53.160;6.990;2023-05-10T08:06:26;15.70;;;13.02;;
52620;SDS011;38515;53.160;6.990;2023-05-10T08:08:55;16.30;;;14.55;;
52620;SDS011;38515;53.160;6.990;2023-05-10T08:11:21;15.25;;;13.65;;
52620;SDS011;38515;53.160;6.990;2023-05-10T08:13:47;13.82;;;12.57;;
52620;SDS011;38515;53.160;6.990;2023-05-10T08:16:15;14.15;;;12.65;;
52620;SDS011;38515;53.160;6.990;2023-05-10T08:18:42;14.15;;;13.05;;
52620;SDS011;38515;53.160;6.990;2023-05-10T08:21:10;14.35;;;12.80;;
52620;SDS011;38515;53.160;6.990;2023-05-10T08:23:38;20.58;;;15.05;;
52620;SDS011;38515;53.160;6.990;2023-05-10T08:26:05;28.15;;;19.58;;
52620;SDS011;38515;53.160;6.990;2023-05-10T08:28:31;23.70;;;19.48;;
52620;SDS011;38515;53.160;6.990;2023-05-10T08:30:57;25.60;;;18.73;;
52620;SDS011;38515;53.160;6.990;2023-05-10T08:33:23;27.88;;;21.10;;
52620;SDS011;38515;53.160;6.990;2023-05-10T08:35:50;28.45;;;21.27;;
52620;SDS011;38515;53.160;6.990;2023-05-10T08:38:17;27.88;;;22.15;;
52620;SDS011;38515;53.160;6.990;2023-05-10T08:40:43;24.30;;;21.67;;
52620;SDS011;38515;53.160;6.990;2023-05-10T08:43:10;23.08;;;20.67;;
52620;SDS011;38515;53.160;6.990;2023-05-10T08:45:38;25.13;;;21.63;;
52620;SDS011;38515;53.160;6.990;2023-05-10T08:48:06;24.70;;;20.90;;
52620;SDS011;38515;53.160;6.990;2023-05-10T08:50:39;23.00;;;20.73;;
52620;SDS011;38515;53.160;6.990;2023-05-10T08:53:06;33.78;;;23.05;;
52620;SDS011;38515;53.160;6.990;2023-05-10T08:55:35;26.13;;;22.05;;
52620;SDS011;38515;53.160;6.990;2023-05-10T08:58:03;21.65;;;19.48;;
52620;SDS011;38515;53.160;6.990;2023-05-10T09:00:30;19.25;;;17.40;;
52620;SDS011;38515;53.160;6.990;2023-05-10T09:02:57;20.75;;;18.95;;
52620;SDS011;38515;53.160;6.990;2023-05-10T09:05:24;19.60;;;17.52;;
52620;SDS011;38515;53.160;6.990;2023-05-10T09:07:50;23.45;;;19.85;;
52620;SDS011;38515;53.160;6.990;2023-05-10T09:10:16;20.73;;;18.70;;
52620;SDS011;38515;53.160;6.990;2023-05-10T09:12:42;21.13;;;18.95;;
52620;SDS011;38515;53.160;6.990;2023-05-10T09:15:10;25.05;;;21.23;;
52620;SDS011;38515;53.160;6.990;2023-05-10T09:17:38;21.20;;;18.63;;
52620;SDS011;38515;53.160;6.990;2023-05-10T09:20:06;26.95;;;20.83;;
52620;SDS011;38515;53.160;6.990;2023-05-10T09:22:35;18.15;;;16.25;;
52620;SDS011;38515;53.160;6.990;2023-05-10T09:25:05;18.48;;;16.60;;
52620;SDS011;38515;53.160;6.990;2023-05-10T09:27:34;22.83;;;19.80;;
52620;SDS011;38515;53.160;6.990;2023-05-10T09:30:01;20.50;;;18.60;;
52620;SDS011;38515;53.160;6.990;2023-05-10T09:35:07;24.23;;;19.30;;
52620;SDS011;38515;53.160;6.990;2023-05-10T09:37:34;17.88;;;16.20;;
52620;SDS011;38515;53.160;6.990;2023-05-10T09:40:00;19.00;;;17.35;;
52620;SDS011;38515;53.160;6.990;2023-05-10T09:42:30;21.65;;;19.15;;
52620;SDS011;38515;53.160;6.990;2023-05-10T09:44:59;19.42;;;17.73;;
52620;SDS011;38515;53.160;6.990;2023-05-10T09:47:27;18.38;;;16.25;;
52620;SDS011;38515;53.160;6.990;2023-05-10T09:49:53;20.70;;;18.60;;
52620;SDS011;38515;53.160;6.990;2023-05-10T09:52:22;22.38;;;18.30;;
52620;SDS011;38515;53.160;6.990;2023-05-10T09:54:52;18.27;;;16.38;;
52620;SDS011;38515;53.160;6.990;2023-05-10T09:57:22;18.80;;;16.73;;
52620;SDS011;38515;53.160;6.990;2023-05-10T09:59:51;15.30;;;13.98;;
52620;SDS011;38515;53.160;6.990;2023-05-10T10:02:19;17.67;;;15.88;;
52620;SDS011;38515;53.160;6.990;2023-05-10T10:04:45;18.50;;;16.60;;
52620;SDS011;38515;53.160;6.990;2023-05-10T10:07:15;16.02;;;14.50;;
52620;SDS011;38515;53.160;6.990;2023-05-10T10:09:47;17.33;;;14.60;;
52620;SDS011;38515;53.160;6.990;2023-05-10T10:12:16;14.43;;;13.00;;
52620;SDS011;38515;53.160;6.990;2023-05-10T10:14:41;12.25;;;11.27;;
52620;SDS011;38515;53.160;6.990;2023-05-10T10:17:08;11.75;;;10.75;;
52620;SDS011;38515;53.160;6.990;2023-05-10T10:19:34;13.98;;;12.88;;
52620;SDS011;38515;53.160;6.990;2023-05-10T10:22:01;13.82;;;12.73;;
52620;SDS011;38515;53.160;6.990;2023-05-10T10:24:31;14.85;;;13.73;;
52620;SDS011;38515;53.160;6.990;2023-05-10T10:26:59;14.88;;;13.77;;
52620;SDS011;38515;53.160;6.990;2023-05-10T10:29:57;14.40;;;13.30;;
52620;SDS011;38515;53.160;6.990;2023-05-10T10:32:30;14.35;;;13.07;;
52620;SDS011;38515;53.160;6.990;2023-05-10T10:35:07;13.77;;;12.48;;
52620;SDS011;38515;53.160;6.990;2023-05-10T10:37:44;14.23;;;13.00;;
52620;SDS011;38515;53.160;6.990;2023-05-10T10:40:27;15.07;;;13.77;;
52620;SDS011;38515;53.160;6.990;2023-05-10T10:42:55;13.68;;;12.38;;
52620;SDS011;38515;53.160;6.990;2023-05-10T10:45:21;14.38;;;12.75;;
52620;SDS011;38515;53.160;6.990;2023-05-10T10:47:49;15.80;;;14.40;;
52620;SDS011;38515;53.160;6.990;2023-05-10T10:50:45;15.40;;;13.85;;
52620;SDS011;38515;53.160;6.990;2023-05-10T10:53:11;15.10;;;13.80;;
52620;SDS011;38515;53.160;6.990;2023-05-10T10:55:47;14.95;;;13.55;;
52620;SDS011;38515;53.160;6.990;2023-05-10T11:01:19;16.15;;;14.55;;
52620;SDS011;38515;53.160;6.990;2023-05-10T11:04:31;19.65;;;17.85;;
52620;SDS011;38515;53.160;6.990;2023-05-10T11:06:31;18.00;;;16.45;;
52620;SDS011;38515;53.160;6.990;2023-05-10T11:08:58;17.42;;;15.80;;
52620;SDS011;38515;53.160;6.990;2023-05-10T11:11:30;14.73;;;13.40;;
52620;SDS011;38515;53.160;6.990;2023-05-10T11:13:56;16.23;;;14.75;;
52620;SDS011;38515;53.160;6.990;2023-05-10T11:16:44;18.27;;;16.63;;
52620;SDS011;38515;53.160;6.990;2023-05-10T11:19:10;17.13;;;15.30;;
52620;SDS011;38515;53.160;6.990;2023-05-10T11:21:50;19.75;;;18.05;;
52620;SDS011;38515;53.160;6.990;2023-05-10T11:24:31;16.25;;;14.63;;
52620;SDS011;38515;53.160;6.990;2023-05-10T11:26:58;19.35;;;17.95;;
52620;SDS011;38515;53.160;6.990;2023-05-10T11:29:26;16.70;;;15.23;;
52620;SDS011;38515;53.160;6.990;2023-05-10T11:31:52;15.38;;;13.95;;
52620;SDS011;38515;53.160;6.990;2023-05-10T11:34:29;15.57;;;14.07;;
52620;SDS011;38515;53.160;6.990;2023-05-10T11:36:59;14.95;;;13.35;;
52620;SDS011;38515;53.160;6.990;2023-05-10T11:39:26;11.38;;;10.50;;
52620;SDS011;38515;53.160;6.990;2023-05-10T11:41:54;10.50;;;9.60;;
52620;SDS011;38515;53.160;6.990;2023-05-10T11:44:20;9.27;;;8.45;;
52620;SDS011;38515;53.160;6.990;2023-05-10T11:46:45;9.35;;;8.65;;
52620;SDS011;38515;53.160;6.990;2023-05-10T11:49:11;9.10;;;8.40;;
52620;SDS011;38515;53.160;6.990;2023-05-10T11:51:38;8.57;;;7.97;;
52620;SDS011;38515;53.160;6.990;2023-05-10T11:54:08;8.60;;;7.93;;
52620;SDS011;38515;53.160;6.990;2023-05-10T11:56:39;8.25;;;7.65;;
52620;SDS011;38515;53.160;6.990;2023-05-10T11:59:05;8.57;;;7.78;;
52620;SDS011;38515;53.160;6.990;2023-05-10T12:01:33;8.02;;;7.32;;
52620;SDS011;38515;53.160;6.990;2023-05-10T12:03:59;9.20;;;8.40;;
52620;SDS011;38515;53.160;6.990;2023-05-10T12:06:26;9.05;;;8.45;;
52620;SDS011;38515;53.160;6.990;2023-05-10T12:08:54;7.97;;;7.47;;
52620;SDS011;38515;53.160;6.990;2023-05-10T12:11:20;8.07;;;7.47;;
52620;SDS011;38515;53.160;6.990;2023-05-10T12:13:50;9.30;;;8.60;;
52620;SDS011;38515;53.160;6.990;2023-05-10T12:16:28;9.25;;;8.45;;
52620;SDS011;38515;53.160;6.990;2023-05-10T12:18:57;13.52;;;12.43;;
52620;SDS011;38515;53.160;6.990;2023-05-10T12:21:25;12.68;;;11.70;;
52620;SDS011;38515;53.160;6.990;2023-05-10T12:23:54;12.38;;;11.48;;
52620;SDS011;38515;53.160;6.990;2023-05-10T12:26:24;11.25;;;10.32;;
52620;SDS011;38515;53.160;6.990;2023-05-10T12:28:52;12.05;;;10.68;;
52620;SDS011;38515;53.160;6.990;2023-05-10T12:31:18;13.55;;;12.20;;
52620;SDS011;38515;53.160;6.990;2023-05-10T12:33:45;12.88;;;11.73;;
52620;SDS011;38515;53.160;6.990;2023-05-10T12:36:15;12.38;;;11.05;;
52620;SDS011;38515;53.160;6.990;2023-05-10T12:38:43;12.73;;;11.43;;
52620;SDS011;38515;53.160;6.990;2023-05-10T12:41:16;13.38;;;11.98;;
52620;SDS011;38515;53.160;6.990;2023-05-10T12:43:42;13.10;;;11.95;;
52620;SDS011;38515;53.160;6.990;2023-05-10T12:46:09;11.63;;;10.52;;
52620;SDS011;38515;53.160;6.990;2023-05-10T12:48:40;12.25;;;11.05;;
52620;SDS011;38515;53.160;6.990;2023-05-10T12:51:07;12.25;;;11.00;;
52620;SDS011;38515;53.160;6.990;2023-05-10T12:53:35;14.13;;;12.63;;
52620;SDS011;38515;53.160;6.990;2023-05-10T12:56:02;13.68;;;12.15;;
52620;SDS011;38515;53.160;6.990;2023-05-10T12:58:27;16.00;;;13.20;;
52620;SDS011;38515;53.160;6.990;2023-05-10T13:00:53;14.57;;;12.98;;
52620;SDS011;38515;53.160;6.990;2023-05-10T13:03:21;14.35;;;12.85;;
52620;SDS011;38515;53.160;6.990;2023-05-10T13:05:47;18.90;;;14.70;;
52620;SDS011;38515;53.160;6.990;2023-05-10T13:08:13;18.98;;;14.73;;
52620;SDS011;38515;53.160;6.990;2023-05-10T13:10:42;17.45;;;12.88;;
52620;SDS011;38515;53.160;6.990;2023-05-10T13:13:08;16.58;;;14.13;;
52620;SDS011;38515;53.160;6.990;2023-05-10T13:15:34;16.10;;;13.68;;
52620;SDS011;38515;53.160;6.990;2023-05-10T13:18:01;14.93;;;13.13;;
52620;SDS011;38515;53.160;6.990;2023-05-10T13:20:27;14.98;;;12.63;;
52620;SDS011;38515;53.160;6.990;2023-05-10T13:22:53;15.52;;;13.68;;
52620;SDS011;38515;53.160;6.990;2023-05-10T13:25:18;21.02;;;14.18;;
52620;SDS011;38515;53.160;6.990;2023-05-10T13:27:44;15.55;;;12.93;;
52620;SDS011;38515;53.160;6.990;2023-05-10T13:30:11;15.80;;;13.48;;
52620;SDS011;38515;53.160;6.990;2023-05-10T13:32:37;15.65;;;14.00;;
52620;SDS011;38515;53.160;6.990;2023-05-10T13:35:04;19.48;;;15.35;;
52620;SDS011;38515;53.160;6.990;2023-05-10T13:37:31;19.25;;;14.65;;
52620;SDS011;38515;53.160;6.990;2023-05-10T13:39:57;18.33;;;16.63;;
52620;SDS011;38515;53.160;6.990;2023-05-10T13:42:23;17.77;;;14.77;;
52620;SDS011;38515;53.160;6.990;2023-05-10T13:44:49;16.23;;;14.63;;
52620;SDS011;38515;53.160;6.990;2023-05-10T13:47:15;15.90;;;14.23;;
52620;SDS011;38515;53.160;6.990;2023-05-10T13:49:41;16.20;;;14.57;;
52620;SDS011;38515;53.160;6.990;2023-05-10T13:52:07;15.32;;;13.02;;
52620;SDS011;38515;53.160;6.990;2023-05-10T13:54:35;17.95;;;16.25;;
52620;SDS011;38515;53.160;6.990;2023-05-10T13:57:02;15.75;;;14.25;;
52620;SDS011;38515;53.160;6.990;2023-05-10T13:59:28;17.65;;;13.65;;
52620;SDS011;38515;53.160;6.990;2023-05-10T14:01:56;16.20;;;14.70;;
52620;SDS011;38515;53.160;6.990;2023-05-10T14:04:23;18.75;;;12.80;;
52620;SDS011;38515;53.160;6.990;2023-05-10T14:06:49;17.15;;;15.75;;
52620;SDS011;38515;53.160;6.990;2023-05-10T14:09:15;22.50;;;20.92;;
52620;SDS011;38515;53.160;6.990;2023-05-10T14:11:41;16.38;;;14.80;;
52620;SDS011;38515;53.160;6.990;2023-05-10T14:14:11;14.85;;;13.45;;
52620;SDS011;38515;53.160;6.990;2023-05-10T14:16:40;14.48;;;13.27;;
52620;SDS011;38515;53.160;6.990;2023-05-10T14:19:08;16.13;;;14.77;;
52620;SDS011;38515;53.160;6.990;2023-05-10T14:21:34;16.45;;;15.00;;
52620;SDS011;38515;53.160;6.990;2023-05-10T14:24:00;16.20;;;14.80;;
52620;SDS011;38515;53.160;6.990;2023-05-10T14:26:26;15.93;;;14.48;;
52620;SDS011;38515;53.160;6.990;2023-05-10T14:28:52;19.30;;;17.77;;
52620;SDS011;38515;53.160;6.990;2023-05-10T14:31:18;16.23;;;14.77;;
52620;SDS011;38515;53.160;6.990;2023-05-10T14:33:48;15.98;;;14.75;;
52620;SDS011;38515;53.160;6.990;2023-05-10T14:36:14;18.33;;;16.92;;
52620;SDS011;38515;53.160;6.990;2023-05-10T14:38:41;15.63;;;14.13;;
52620;SDS011;38515;53.160;6.990;2023-05-10T14:41:07;15.75;;;14.32;;